Time;durP1;ratioP1;P1;durP2;ratioP2;P2;SDS_P1;SDS_P2;PMS_P1;PMS_P2;Temp;Humidity;BMP_temperature;BMP_pressure;BME280_temperature;BME280_humidity;BME280_pressure;Samples;Min_cycle;Max_cycle;Signal;HPM_P1;HPM_P2
2023/05/06 00:01:14;;;;;;;11.35;3.15;;;;;;;1.66;56.31;99857.09;7349394;19;20023;-74
2023/05/06 00:03:39;;;;;;;3.88;2.72;;;;;;;1.63;56.76;99851.94;7360965;19;20455;-75
2023/05/06 00:06:06;;;;;;;4.88;2.60;;;;;;;1.58;56.34;99857.31;7357971;19;20460;-72
2023/05/06 00:08:30;;;;;;;6.90;3.55;;;;;;;1.55;56.86;99854.81;7354912;19;20019;-71
2023/05/06 00:10:55;;;;;;;6.05;3.28;;;;;;;1.53;56.57;99848.72;7355974;19;20128;-74
2023/05/06 00:13:20;;;;;;;6.57;3.47;;;;;;;1.56;56.54;99861.78;7351685;19;20035;-67
2023/05/06 00:15:46;;;;;;;7.30;3.25;;;;;;;1.50;56.95;99867.22;7353448;19;20018;-67
2023/05/06 00:18:10;;;;;;;8.27;3.22;;;;;;;1.48;56.99;99869.03;7352177;19;20014;-69
2023/05/06 00:20:38;;;;;;;5.88;3.17;;;;;;;1.43;57.64;99866.56;7350254;19;20006;-69
2023/05/06 00:23:03;;;;;;;9.63;3.60;;;;;;;1.38;57.63;99868.44;7349540;19;20085;-71
2023/05/06 00:25:28;;;;;;;6.25;3.67;;;;;;;1.36;57.84;99866.78;7350820;19;20537;-73
2023/05/06 00:27:52;;;;;;;7.20;3.30;;;;;;;1.32;58.17;99873.91;7349876;19;20372;-75
2023/05/06 00:30:17;;;;;;;7.85;3.08;;;;;;;1.29;58.58;99875.75;7353824;19;20025;-76
2023/05/06 00:32:43;;;;;;;7.25;3.40;;;;;;;1.27;59.15;99874.94;7350997;19;20017;-75
2023/05/06 00:35:08;;;;;;;8.63;3.50;;;;;;;1.27;59.35;99872.31;7354167;19;20018;-74
2023/05/06 00:37:33;;;;;;;11.88;3.90;;;;;;;1.25;59.38;99869.72;7347390;19;20046;-72
2023/05/06 00:39:58;;;;;;;7.05;3.92;;;;;;;1.26;59.34;99876.69;7352394;19;20013;-70
2023/05/06 00:42:24;;;;;;;6.07;3.42;;;;;;;1.25;60.09;99882.84;7347565;19;20007;-73
2023/05/06 00:44:49;;;;;;;5.43;3.80;;;;;;;1.29;60.36;99878.38;7346001;19;20023;-72
2023/05/06 00:47:17;;;;;;;7.20;3.20;;;;;;;1.28;60.33;99877.50;7346707;19;20365;-76
2023/05/06 00:49:42;;;;;;;6.75;3.60;;;;;;;1.29;60.17;99876.63;7348039;19;20018;-72
2023/05/06 00:52:07;;;;;;;7.03;3.03;;;;;;;1.28;60.41;99874.03;7352077;19;20017;-78
2023/05/06 00:54:32;;;;;;;7.75;3.40;;;;;;;1.29;60.32;99873.13;7350953;19;20086;-78
2023/05/06 00:56:57;;;;;;;8.10;3.45;;;;;;;1.30;60.58;99877.47;7349586;19;20018;-71
2023/05/06 00:59:22;;;;;;;5.85;3.40;;;;;;;1.31;60.26;99876.56;7348069;19;20022;-71
2023/05/06 01:01:48;;;;;;;5.85;4.13;;;;;;;1.25;60.02;99882.00;7345315;19;20041;-70
2023/05/06 01:04:13;;;;;;;6.93;3.60;;;;;;;1.20;61.44;99884.78;7348084;19;20085;-70
2023/05/06 01:06:49;;;;;;;7.30;3.75;;;;;;;1.18;61.30;99888.34;7348531;19;20050;-73
2023/05/06 01:09:45;;;;;;;5.05;3.38;;;;;;;1.16;61.85;99887.53;7349772;19;20367;-70
2023/05/06 01:12:28;;;;;;;4.70;2.85;;;;;;;1.14;61.03;99890.19;7345082;19;20378;-70
2023/05/06 01:15:12;;;;;;;6.22;3.40;;;;;;;1.12;61.06;99886.78;7346521;19;20469;-69
2023/05/06 01:17:42;;;;;;;5.22;3.28;;;;;;;1.02;61.75;99891.41;7347650;19;20027;-65
2023/05/06 01:20:14;;;;;;;6.40;3.30;;;;;;;0.97;62.45;99895.94;7349063;19;20506;-66
2023/05/06 01:22:43;;;;;;;6.05;3.10;;;;;;;0.91;62.91;99892.59;7346091;19;20085;-66
2023/05/06 01:25:20;;;;;;;6.68;3.80;;;;;;;0.95;62.64;99896.88;7348033;19;20011;-65
2023/05/06 01:27:46;;;;;;;6.53;3.50;;;;;;;0.89;63.22;99895.31;7348752;19;20030;-64
2023/05/06 01:30:12;;;;;;;10.15;3.88;;;;;;;0.86;63.47;99895.38;7354666;19;20021;-67
2023/05/06 01:33:17;;;;;;;5.85;3.65;;;;;;;0.92;64.12;99896.97;7346241;19;20003;-66
2023/05/06 01:35:52;;;;;;;5.93;2.63;;;;;;;0.94;63.04;99898.66;7344703;19;20032;-66
2023/05/06 01:38:20;;;;;;;6.40;3.10;;;;;;;0.89;63.53;99892.69;7344908;19;20066;-71
2023/05/06 01:40:53;;;;;;;3.92;2.70;;;;;;;0.92;63.35;99891.72;7342153;19;20026;-72
2023/05/06 01:43:20;;;;;;;4.35;2.90;;;;;;;0.89;63.54;99894.44;7344276;19;20035;-71
2023/05/06 01:45:52;;;;;;;4.88;3.40;;;;;;;0.86;63.38;99892.75;7344131;19;20536;-72
2023/05/06 01:48:30;;;;;;;5.10;2.58;;;;;;;0.90;63.52;99902.28;7346125;19;20007;-78
2023/05/06 01:50:57;;;;;;;6.05;3.55;;;;;;;0.85;63.49;99898.91;7343422;19;20086;-77
2023/05/06 01:53:22;;;;;;;10.35;3.42;;;;;;;0.87;63.19;99897.09;7348573;19;20042;-76
2023/05/06 01:55:47;;;;;;;4.05;2.88;;;;;;;0.92;63.14;99899.59;7344743;19;20015;-77
2023/05/06 01:58:14;;;;;;;11.23;4.05;;;;;;;1.01;63.04;99899.34;7344527;19;20015;-78
2023/05/06 02:00:41;;;;;;;7.07;3.40;;;;;;;1.09;62.87;99898.22;7346821;19;20015;-78
2023/05/06 02:03:05;;;;;;;3.80;3.00;;;;;;;1.09;62.90;99892.97;7343375;19;20015;-76
2023/05/06 02:05:30;;;;;;;4.68;3.28;;;;;;;1.21;62.52;99907.50;7344429;19;20013;-77
2023/05/06 02:07:57;;;;;;;3.28;2.00;;;;;;;1.30;62.42;99903.75;7346629;19;20105;-78
2023/05/06 02:10:22;;;;;;;4.70;2.60;;;;;;;1.36;62.47;99907.03;7342974;19;20517;-73
2023/05/06 02:12:53;;;;;;;5.07;2.40;;;;;;;1.41;62.27;99909.53;7345550;19;20022;-72
2023/05/06 02:15:18;;;;;;;3.38;2.17;;;;;;;1.48;62.84;99911.06;7342756;19;20042;-74
2023/05/06 02:17:43;;;;;;;4.57;2.53;;;;;;;1.60;62.57;99905.44;7342925;19;20133;-72
2023/05/06 02:20:08;;;;;;;4.72;2.28;;;;;;;1.78;62.29;99909.28;7345778;19;20018;-66
2023/05/06 02:22:34;;;;;;;4.18;2.30;;;;;;;1.96;61.86;99907.81;7342394;19;20018;-74
2023/05/06 02:24:58;;;;;;;4.05;2.70;;;;;;;2.14;61.12;99902.78;7341830;19;20033;-67
2023/05/06 02:27:23;;;;;;;4.63;2.53;;;;;;;2.31;61.02;99901.38;7344487;19;20625;-72
2023/05/06 02:29:48;;;;;;;3.95;2.22;;;;;;;2.51;60.57;99912.94;7342641;19;20021;-72
2023/05/06 02:32:13;;;;;;;7.40;2.58;;;;;;;2.67;60.16;99912.44;7340642;19;20018;-72
2023/05/06 02:34:37;;;;;;;3.95;2.13;;;;;;;2.79;59.76;99912.84;7343902;19;20015;-72
2023/05/06 02:37:05;;;;;;;4.93;2.67;;;;;;;2.83;59.32;99909.19;7341912;19;20018;-69
2023/05/06 02:39:30;;;;;;;6.60;3.38;;;;;;;2.90;59.32;99909.84;7342791;19;20029;-71
2023/05/06 02:41:58;;;;;;;5.38;2.33;;;;;;;2.89;59.10;99913.38;7341719;19;20473;-73
2023/05/06 02:44:23;;;;;;;5.03;3.75;;;;;;;2.97;59.08;99910.47;7343598;19;20457;-72
2023/05/06 02:46:47;;;;;;;5.72;3.28;;;;;;;2.97;58.96;99916.59;7343271;19;20022;-72
2023/05/06 02:49:12;;;;;;;3.80;2.63;;;;;;;2.98;58.79;99915.69;7343079;19;20077;-67
2023/05/06 02:51:36;;;;;;;6.70;2.50;;;;;;;2.91;58.91;99912.41;7344399;19;20090;-73
2023/05/06 02:54:01;;;;;;;3.55;2.55;;;;;;;2.98;59.07;99920.94;7338806;19;20026;-74
2023/05/06 02:56:26;;;;;;;3.00;2.22;;;;;;;3.06;58.90;99924.16;7344504;19;20017;-72
2023/05/06 02:58:52;;;;;;;2.88;2.00;;;;;;;3.18;58.83;99926.34;7342742;19;20351;-75
2023/05/06 03:01:16;;;;;;;4.15;2.97;;;;;;;3.37;58.16;99933.56;7340259;19;20026;-69
2023/05/06 03:03:41;;;;;;;3.58;2.47;;;;;;;3.40;57.75;99930.81;7344037;19;20014;-65
2023/05/06 03:06:06;;;;;;;4.60;2.72;;;;;;;3.42;57.58;99923.72;7344501;19;20010;-67
2023/05/06 03:08:32;;;;;;;4.78;3.05;;;;;;;3.43;57.54;99928.91;7341048;19;20090;-69
2023/05/06 03:10:57;;;;;;;3.25;2.28;;;;;;;3.39;57.47;99940.47;7344550;19;20014;-71
2023/05/06 03:13:23;;;;;;;5.22;2.30;;;;;;;3.34;57.71;99921.38;7348070;19;20023;-71
2023/05/06 03:15:55;;;;;;;3.67;3.00;;;;;;;3.33;57.94;99940.72;7344406;19;20010;-67
2023/05/06 03:18:26;;;;;;;3.13;2.03;;;;;;;3.23;57.78;99940.22;7343256;19;20021;-68
2023/05/06 03:20:51;;;;;;;3.78;2.35;;;;;;;3.16;58.04;99938.69;7353638;19;20022;-68
2023/05/06 03:23:16;;;;;;;5.63;2.80;;;;;;;3.12;58.06;99942.38;7345439;19;20046;-69
2023/05/06 03:25:45;;;;;;;3.20;2.17;;;;;;;3.14;58.22;99942.34;7345631;19;21011;-68
2023/05/06 03:28:12;;;;;;;2.25;1.92;;;;;;;3.09;58.15;99937.22;7341593;19;20011;-68
2023/05/06 03:30:39;;;;;;;3.22;2.25;;;;;;;2.97;57.83;99950.81;7340863;19;20015;-67
2023/05/06 03:33:05;;;;;;;2.95;2.65;;;;;;;2.89;58.46;99947.63;7342666;19;20449;-67
2023/05/06 03:38:05;;;;;;;3.40;2.40;;;;;;;2.89;58.02;99952.88;7345625;19;20018;-68
2023/05/06 03:40:47;;;;;;;4.35;2.25;;;;;;;2.90;58.24;99957.25;7341316;19;20021;-68
2023/05/06 03:43:14;;;;;;;4.22;2.00;;;;;;;2.87;58.27;99955.56;7342401;19;20073;-71
2023/05/06 03:45:42;;;;;;;2.75;2.10;;;;;;;2.88;58.45;99965.19;7343076;19;20018;-72
2023/05/06 03:48:07;;;;;;;2.92;2.40;;;;;;;2.97;58.64;99961.34;7341291;19;20114;-71
2023/05/06 03:50:35;;;;;;;2.88;2.47;;;;;;;3.05;57.55;99954.03;7338594;19;20044;-67
2023/05/06 03:53:02;;;;;;;2.45;2.00;;;;;;;3.05;57.27;99951.41;7338533;19;20018;-67
2023/05/06 03:55:28;;;;;;;2.35;2.05;;;;;;;3.08;57.66;99956.56;7339815;19;20045;-71
2023/05/06 03:57:55;;;;;;;2.97;1.83;;;;;;;3.10;57.14;99957.38;7339058;19;20018;-71
2023/05/06 04:00:20;;;;;;;3.13;2.60;;;;;;;3.18;57.33;99959.72;7338722;19;20018;-73
2023/05/06 04:02:50;;;;;;;2.63;2.08;;;;;;;3.24;57.00;99959.53;7337887;19;20014;-71
2023/05/06 04:05:21;;;;;;;2.10;1.90;;;;;;;3.29;56.47;99962.81;7342602;19;20028;-70
2023/05/06 04:07:49;;;;;;;3.45;2.72;;;;;;;3.18;56.48;99957.09;7338636;19;20489;-68
2023/05/06 04:10:14;;;;;;;3.55;2.50;;;;;;;3.07;56.67;99965.38;7337862;19;20015;-68
2023/05/06 04:12:43;;;;;;;3.15;1.98;;;;;;;2.96;56.75;99964.91;7341353;19;20018;-68
2023/05/06 04:15:10;;;;;;;14.20;2.70;;;;;;;2.91;56.74;99967.72;7337791;19;20015;-68
2023/05/06 04:17:35;;;;;;;4.05;2.35;;;;;;;2.90;56.81;99973.03;7337902;19;20015;-68
2023/05/06 04:20:05;;;;;;;5.00;2.22;;;;;;;2.87;56.73;99973.13;7338528;19;20023;-71
2023/05/06 04:22:31;;;;;;;2.83;2.30;;;;;;;2.94;56.81;99982.53;7338785;19;20018;-72
2023/05/06 04:24:56;;;;;;;4.88;2.38;;;;;;;3.04;56.55;99975.19;7341725;19;20023;-73
2023/05/06 04:27:23;;;;;;;2.20;1.98;;;;;;;3.07;56.09;99969.78;7338036;19;20018;-70
2023/05/06 04:29:48;;;;;;;2.65;1.88;;;;;;;3.10;56.11;99978.44;7337741;19;20011;-70
2023/05/06 04:32:16;;;;;;;3.17;1.88;;;;;;;3.09;55.95;99974.09;7335920;19;20469;-70
2023/05/06 04:34:43;;;;;;;2.00;1.63;;;;;;;3.35;55.79;99969.66;7337592;19;20476;-69
2023/05/06 04:37:14;;;;;;;1.58;1.33;;;;;;;3.59;55.46;99974.03;7337457;19;20047;-70
2023/05/06 04:39:45;;;;;;;2.42;1.73;;;;;;;3.82;54.61;99971.38;7337399;19;20021;-70
2023/05/06 04:42:12;;;;;;;1.95;1.50;;;;;;;3.92;53.92;99977.13;7337862;19;20051;-70
2023/05/06 04:44:44;;;;;;;2.35;1.88;;;;;;;4.04;53.73;99975.81;7337697;19;20031;-71
2023/05/06 04:47:09;;;;;;;2.78;1.77;;;;;;;4.09;53.64;99982.59;7342129;19;20022;-72
2023/05/06 04:49:35;;;;;;;2.42;1.65;;;;;;;4.06;53.29;99984.53;7345301;19;20037;-73
2023/05/06 04:52:02;;;;;;;2.67;2.38;;;;;;;3.91;53.34;99976.28;7346337;19;20019;-73
2023/05/06 04:54:27;;;;;;;3.47;2.15;;;;;;;3.91;53.49;99984.19;7344593;19;20087;-72
2023/05/06 04:56:52;;;;;;;3.38;2.13;;;;;;;3.98;53.80;99987.44;7345506;19;20010;-70
2023/05/06 04:59:18;;;;;;;2.90;1.90;;;;;;;3.92;53.49;99972.72;7344313;19;20014;-70
2023/05/06 05:01:43;;;;;;;1.20;1.15;;;;;;;3.91;53.01;99975.41;7343237;19;20021;-72
2023/05/06 05:04:09;;;;;;;4.43;1.80;;;;;;;3.91;53.14;99978.06;7343836;19;20018;-70
2023/05/06 05:06:33;;;;;;;2.55;1.92;;;;;;;3.97;53.29;99973.38;7348055;19;20006;-70
2023/05/06 05:08:59;;;;;;;4.47;2.50;;;;;;;4.08;52.54;99977.38;7343735;19;20028;-69
2023/05/06 05:11:24;;;;;;;2.92;1.60;;;;;;;4.13;52.30;99981.56;7342446;19;20019;-70
2023/05/06 05:13:49;;;;;;;4.15;2.15;;;;;;;4.16;52.42;99980.59;7344509;19;20014;-71
2023/05/06 05:16:13;;;;;;;6.57;2.47;;;;;;;4.38;52.45;99984.94;7345895;19;20021;-68
2023/05/06 05:18:40;;;;;;;2.03;1.85;;;;;;;4.59;51.65;99984.97;7345046;19;20019;-68
2023/05/06 05:21:12;;;;;;;3.22;2.28;;;;;;;4.80;51.15;99980.56;7343585;19;20023;-69
2023/05/06 05:23:37;;;;;;;5.13;2.20;;;;;;;4.97;50.61;99986.84;7345869;19;20026;-69
2023/05/06 05:26:02;;;;;;;3.30;1.75;;;;;;;5.06;50.62;99985.59;7347234;19;20027;-69
2023/05/06 05:28:27;;;;;;;2.17;1.40;;;;;;;5.16;50.58;99994.84;7343485;19;20021;-68
2023/05/06 05:30:53;;;;;;;3.60;2.20;;;;;;;5.21;50.05;99976.13;7343227;19;20015;-69
2023/05/06 05:33:18;;;;;;;2.88;2.22;;;;;;;5.26;49.51;99972.38;7343807;19;20814;-70
2023/05/06 05:35:43;;;;;;;2.10;1.80;;;;;;;5.09;49.75;99974.88;7343608;19;20025;-76
2023/05/06 05:38:08;;;;;;;7.55;2.78;;;;;;;5.10;49.87;99982.75;7342492;19;20078;-70
2023/05/06 05:40:35;;;;;;;2.60;1.38;;;;;;;5.56;49.46;99979.81;7344188;19;20010;-70
2023/05/06 05:43:01;;;;;;;2.85;1.80;;;;;;;5.85;48.49;99982.00;7343084;19;20015;-71
2023/05/06 05:45:31;;;;;;;2.38;1.58;;;;;;;6.09;48.12;99977.38;7343020;19;20014;-70
2023/05/06 05:47:56;;;;;;;2.22;2.03;;;;;;;6.33;48.21;99980.59;7342604;19;20045;-71
2023/05/06 05:50:21;;;;;;;7.43;1.98;;;;;;;6.55;47.22;99989.22;7341925;19;20014;-71
2023/05/06 05:52:47;;;;;;;1.88;1.55;;;;;;;6.68;46.37;99982.38;7342416;19;20015;-71
2023/05/06 05:55:11;;;;;;;8.70;1.92;;;;;;;6.72;45.84;99980.44;7345169;19;20078;-70
2023/05/06 05:57:37;;;;;;;2.83;1.40;;;;;;;6.65;45.82;99985.19;7340513;19;20092;-69
2023/05/06 06:00:04;;;;;;;2.45;2.20;;;;;;;6.53;45.88;99985.81;7341022;19;20047;-69
2023/05/06 06:02:33;;;;;;;1.20;1.10;;;;;;;6.39;46.06;99983.81;7341901;19;20636;-70
2023/05/06 06:04:58;;;;;;;2.92;1.70;;;;;;;6.36;46.00;99983.97;7342191;19;20021;-70
2023/05/06 06:07:23;;;;;;;3.45;1.83;;;;;;;6.91;45.82;99982.06;7341921;19;20066;-70
2023/05/06 06:09:47;;;;;;;6.82;1.88;;;;;;;7.29;44.71;99987.19;7341650;19;20086;-70
2023/05/06 06:12:14;;;;;;;4.70;1.63;;;;;;;7.94;43.24;99996.03;7339886;19;20354;-69
2023/05/06 06:14:39;;;;;;;2.47;1.52;;;;;;;8.55;41.53;99988.19;7344820;19;20407;-69
2023/05/06 06:17:04;;;;;;;5.00;2.10;;;;;;;8.65;41.08;99988.50;7341568;19;20030;-69
2023/05/06 06:19:30;;;;;;;2.85;2.35;;;;;;;8.25;41.50;99992.53;7342937;19;20023;-69
2023/05/06 06:21:56;;;;;;;3.65;1.58;;;;;;;7.77;42.21;99993.47;7341193;19;20422;-69
2023/05/06 06:24:20;;;;;;;8.15;2.92;;;;;;;7.94;43.60;99998.72;7340718;19;20025;-68
2023/05/06 06:26:47;;;;;;;3.20;2.15;;;;;;;8.47;42.54;99994.84;7341159;19;20014;-69
2023/05/06 06:29:11;;;;;;;2.58;2.03;;;;;;;9.18;40.23;99984.47;7340912;19;20041;-68
2023/05/06 06:31:36;;;;;;;3.67;2.60;;;;;;;9.15;39.88;99989.97;7341681;19;20019;-68
2023/05/06 06:34:05;;;;;;;3.42;2.63;;;;;;;8.66;39.96;99996.41;7342172;19;20015;-68
2023/05/06 06:36:30;;;;;;;3.85;1.77;;;;;;;8.55;40.77;100005.94;7340653;19;20354;-69
2023/05/06 06:38:55;;;;;;;5.22;2.13;;;;;;;8.56;40.96;99999.66;7340556;19;20018;-69
2023/05/06 06:41:21;;;;;;;5.05;1.98;;;;;;;8.50;40.78;100008.84;7340984;19;20011;-67
2023/05/06 06:43:48;;;;;;;4.35;1.88;;;;;;;8.43;40.69;100010.16;7339967;19;20078;-69
2023/05/06 06:46:20;;;;;;;5.18;2.05;;;;;;;9.93;39.33;99992.19;7344845;19;20014;-69
2023/05/06 06:48:44;;;;;;;1.65;1.33;;;;;;;11.68;36.78;99996.44;7342172;19;20022;-70
2023/05/06 06:51:11;;;;;;;2.10;1.75;;;;;;;12.60;34.74;99996.03;7339579;19;20010;-69
2023/05/06 06:53:36;;;;;;;3.78;2.47;;;;;;;12.46;33.33;100002.41;7341781;19;20019;-71
2023/05/06 06:56:01;;;;;;;3.42;2.05;;;;;;;11.63;34.08;99991.41;7340604;19;20018;-68
2023/05/06 06:58:32;;;;;;;4.10;2.33;;;;;;;11.39;36.20;100008.31;7343021;19;20019;-69
2023/05/06 07:00:59;;;;;;;3.38;2.05;;;;;;;11.12;36.63;100014.56;7342635;19;20019;-70
2023/05/06 07:03:24;;;;;;;3.95;1.77;;;;;;;11.26;35.88;100013.63;7341690;19;20094;-70
2023/05/06 07:05:49;;;;;;;7.03;2.35;;;;;;;10.80;36.07;100015.88;7341154;19;20086;-74
2023/05/06 07:08:13;;;;;;;2.75;1.73;;;;;;;10.56;37.21;100007.69;7341180;19;20019;-71
2023/05/06 07:10:38;;;;;;;2.70;1.92;;;;;;;10.44;37.14;100012.00;7340494;19;20010;-71
2023/05/06 07:13:03;;;;;;;2.30;2.05;;;;;;;10.58;37.26;100011.09;7341440;19;20058;-71
2023/05/06 07:15:27;;;;;;;15.93;9.88;;;;;;;10.75;37.28;100007.31;7341033;19;20074;-71
2023/05/06 07:17:53;;;;;;;5.05;2.53;;;;;;;10.85;37.19;100016.41;7341191;19;20042;-70
2023/05/06 07:20:18;;;;;;;3.17;1.80;;;;;;;10.87;37.00;100009.16;7341242;19;20405;-71
2023/05/06 07:22:44;;;;;;;4.20;2.15;;;;;;;10.92;36.57;100020.41;7343002;19;20413;-72
2023/05/06 07:25:09;;;;;;;5.82;2.42;;;;;;;10.79;36.09;100019.50;7348895;19;20015;-70
2023/05/06 07:27:34;;;;;;;4.05;2.35;;;;;;;10.51;37.28;100025.78;7351892;19;20010;-72
2023/05/06 07:29:59;;;;;;;9.98;2.63;;;;;;;10.21;37.54;100028.63;7341603;19;20015;-71
2023/05/06 07:32:24;;;;;;;3.08;1.80;;;;;;;9.66;37.20;100021.41;7339685;19;20018;-70
2023/05/06 07:34:49;;;;;;;3.45;1.70;;;;;;;8.92;38.45;100025.91;7343378;19;20458;-72
2023/05/06 07:37:14;;;;;;;3.55;1.60;;;;;;;8.57;39.12;100042.09;7345928;19;20022;-71
2023/05/06 07:39:39;;;;;;;7.72;1.55;;;;;;;8.66;39.35;100044.22;7344835;19;20101;-71
2023/05/06 07:42:04;;;;;;;3.47;1.55;;;;;;;9.07;39.22;100038.31;7343095;19;20330;-72
2023/05/06 07:44:29;;;;;;;3.22;1.40;;;;;;;10.97;37.77;100026.25;7341136;19;20014;-72
2023/05/06 07:46:54;;;;;;;1.83;1.30;;;;;;;14.25;32.89;100018.91;7343679;19;20010;-71
2023/05/06 07:49:21;;;;;;;2.78;1.80;;;;;;;17.61;29.29;100014.34;7342260;19;20022;-71
2023/05/06 07:51:46;;;;;;;1.77;1.38;;;;;;;19.57;25.94;100012.94;7341448;19;20010;-72
2023/05/06 07:54:13;;;;;;;1.92;1.48;;;;;;;20.43;25.03;100004.81;7343678;19;20470;-72
2023/05/06 07:56:40;;;;;;;12.15;2.10;;;;;;;21.93;23.37;99990.81;7348015;19;20470;-72
2023/05/06 07:59:05;;;;;;;3.30;1.90;;;;;;;22.01;23.38;99998.97;7345618;19;20010;-71
2023/05/06 08:01:30;;;;;;;3.40;1.80;;;;;;;21.58;23.01;99986.66;7341722;19;20010;-69
2023/05/06 08:03:54;;;;;;;2.22;1.80;;;;;;;21.87;23.17;99987.97;7343501;19;20116;-70
2023/05/06 08:06:20;;;;;;;2.38;2.17;;;;;;;22.15;22.72;99996.53;7343040;19;20329;-70
2023/05/06 08:08:45;;;;;;;3.53;2.42;;;;;;;21.95;22.45;99996.06;7341261;19;20023;-71
2023/05/06 08:11:11;;;;;;;3.95;2.10;;;;;;;21.04;22.41;100004.44;7342111;19;20015;-70
2023/05/06 08:13:35;;;;;;;3.17;2.47;;;;;;;20.01;23.81;99996.63;7342703;19;20035;-71
2023/05/06 08:16:01;;;;;;;2.78;2.13;;;;;;;18.74;24.68;100003.38;7342970;19;20014;-70
2023/05/06 08:18:25;;;;;;;3.30;1.67;;;;;;;17.71;26.13;100003.59;7345724;19;20026;-70
2023/05/06 08:20:50;;;;;;;6.55;2.83;;;;;;;16.65;26.67;100019.75;7339439;19;20041;-69
2023/05/06 08:23:16;;;;;;;7.40;2.35;;;;;;;16.46;27.43;100019.69;7346405;19;20214;-70
2023/05/06 08:25:41;;;;;;;3.47;2.28;;;;;;;18.53;25.41;100011.72;7346724;19;20042;-69
2023/05/06 08:28:05;;;;;;;4.63;2.03;;;;;;;21.25;23.56;100007.53;7348948;19;20021;-70
2023/05/06 08:30:30;;;;;;;4.97;2.03;;;;;;;24.02;21.33;99996.91;7346619;19;20453;-70
2023/05/06 08:32:55;;;;;;;9.05;2.90;;;;;;;26.17;19.06;99997.72;7346997;19;20354;-70
2023/05/06 08:35:20;;;;;;;6.93;2.35;;;;;;;26.43;18.73;100004.38;7346336;19;20086;-71
2023/05/06 08:37:45;;;;;;;3.92;2.60;;;;;;;24.76;19.12;100002.28;7346654;19;20035;-71
2023/05/06 08:40:18;;;;;;;3.08;2.00;;;;;;;23.12;21.02;100007.78;7350534;19;20026;-71
2023/05/06 08:42:48;;;;;;;3.05;2.22;;;;;;;20.38;22.17;100009.84;7346129;19;20027;-72
2023/05/06 08:45:14;;;;;;;2.75;2.08;;;;;;;18.47;24.38;100007.78;7346293;19;20406;-72
2023/05/06 08:47:41;;;;;;;5.93;2.90;;;;;;;16.87;25.76;100013.28;7344965;19;20035;-72
2023/05/06 08:50:06;;;;;;;2.72;1.77;;;;;;;15.70;26.68;100021.91;7345718;19;20018;-71
2023/05/06 08:52:32;;;;;;;5.00;2.10;;;;;;;15.71;26.95;100022.78;7344040;19;20025;-71
2023/05/06 08:55:00;;;;;;;2.78;2.33;;;;;;;18.08;25.67;100009.81;7344196;19;20029;-72
2023/05/06 08:57:28;;;;;;;2.67;2.40;;;;;;;19.79;22.75;99990.75;7345828;19;20090;-72
2023/05/06 08:59:54;;;;;;;5.10;2.17;;;;;;;20.33;22.29;100012.16;7348946;19;20014;-70
2023/05/06 09:02:21;;;;;;;2.83;2.13;;;;;;;20.03;22.51;100003.56;7344460;19;20035;-71
2023/05/06 09:04:47;;;;;;;9.15;2.78;;;;;;;19.20;23.28;100000.44;7344017;19;20369;-71
2023/05/06 09:07:13;;;;;;;2.05;1.83;;;;;;;17.82;22.86;99992.63;7344443;19;20359;-73
2023/05/06 09:09:38;;;;;;;6.88;2.38;;;;;;;16.48;23.74;100009.66;7343922;19;20057;-72
2023/05/06 09:12:10;;;;;;;3.45;1.83;;;;;;;16.43;24.49;100018.13;7342131;19;20010;-72
2023/05/06 09:14:37;;;;;;;6.82;2.63;;;;;;;17.44;24.69;100004.31;7343591;19;20469;-72
2023/05/06 09:17:02;;;;;;;2.58;2.25;;;;;;;19.30;22.24;99992.22;7343852;19;20351;-71
2023/05/06 09:19:27;;;;;;;7.75;2.60;;;;;;;20.12;21.53;99990.94;7343883;19;20367;-70
2023/05/06 09:21:52;;;;;;;3.63;2.28;;;;;;;19.34;21.84;99995.47;7346907;19;20030;-71
2023/05/06 09:24:17;;;;;;;5.78;3.10;;;;;;;17.87;22.88;100002.94;7345643;19;20452;-72
2023/05/06 09:26:44;;;;;;;10.27;2.78;;;;;;;16.70;25.18;100018.34;7343460;19;20184;-73
2023/05/06 09:29:14;;;;;;;5.30;1.83;;;;;;;15.52;25.98;100013.59;7347416;19;20021;-70
2023/05/06 09:31:45;;;;;;;4.75;2.10;;;;;;;14.83;26.62;100017.72;7353317;19;20015;-73
2023/05/06 09:34:10;;;;;;;3.83;2.20;;;;;;;14.06;27.16;100016.88;7350657;19;20022;-71
2023/05/06 09:36:35;;;;;;;3.78;2.03;;;;;;;13.90;27.69;100027.94;7344788;19;20042;-72
2023/05/06 09:39:02;;;;;;;6.03;2.08;;;;;;;14.63;27.52;100022.06;7350706;19;20055;-70
2023/05/06 09:41:28;;;;;;;3.40;1.80;;;;;;;14.67;26.81;100028.84;7350125;19;20039;-72
2023/05/06 09:43:57;;;;;;;4.03;1.98;;;;;;;14.12;27.11;100016.34;7343482;19;20059;-72
2023/05/06 09:46:26;;;;;;;3.70;1.75;;;;;;;13.77;27.91;100029.88;7345406;19;20059;-73
2023/05/06 09:48:53;;;;;;;4.35;1.85;;;;;;;13.01;27.96;100033.06;7347444;19;20029;-72
2023/05/06 09:51:19;;;;;;;3.22;1.80;;;;;;;12.41;28.43;100044.69;7347317;19;20472;-72
2023/05/06 09:53:45;;;;;;;8.00;2.85;;;;;;;11.99;28.74;100046.78;7348305;19;20023;-71
2023/05/06 09:56:13;;;;;;;6.68;2.17;;;;;;;11.87;29.32;100047.63;7348689;19;20032;-72
2023/05/06 09:58:39;;;;;;;2.75;1.98;;;;;;;12.26;29.04;100035.94;7348305;19;20029;-71
2023/05/06 10:01:06;;;;;;;2.78;1.38;;;;;;;14.21;27.43;100029.06;7346485;19;20018;-72
2023/05/06 10:03:33;;;;;;;3.33;1.88;;;;;;;16.03;26.18;100017.28;7349166;19;20029;-71
2023/05/06 10:06:05;;;;;;;1.90;1.70;;;;;;;17.05;24.25;100016.94;7346247;19;20010;-71
2023/05/06 10:08:35;;;;;;;5.22;2.10;;;;;;;17.08;24.25;100026.59;7346308;19;20026;-71
2023/05/06 10:11:01;;;;;;;4.68;1.83;;;;;;;16.34;24.53;100019.81;7343868;19;20022;-72
2023/05/06 10:13:26;;;;;;;5.53;2.15;;;;;;;16.11;24.65;100014.75;7346560;19;20468;-71
2023/05/06 10:15:51;;;;;;;4.13;1.65;;;;;;;15.97;25.29;100019.53;7350782;19;20037;-70
2023/05/06 10:18:17;;;;;;;4.32;1.70;;;;;;;16.22;24.72;100022.75;7344777;19;20022;-70
2023/05/06 10:20:43;;;;;;;3.75;1.80;;;;;;;16.25;23.84;100017.09;7346062;19;20074;-77
2023/05/06 10:23:21;;;;;;;1.60;1.50;;;;;;;16.25;24.86;100022.47;7346393;19;20496;-72
2023/05/06 10:25:50;;;;;;;2.67;1.70;;;;;;;15.81;23.84;100011.06;7344254;19;20014;-71
2023/05/06 10:28:18;;;;;;;4.07;1.85;;;;;;;15.36;23.87;100018.56;7343238;19;20426;-73
2023/05/06 10:30:44;;;;;;;2.95;2.08;;;;;;;14.78;24.61;100009.22;7342782;19;20018;-73
2023/05/06 10:33:10;;;;;;;5.30;2.05;;;;;;;14.30;24.96;100009.53;7345460;19;20143;-71
2023/05/06 10:35:59;;;;;;;7.43;2.75;;;;;;;13.97;26.11;100025.66;7343103;19;20011;-71
2023/05/06 10:38:43;;;;;;;4.80;1.65;;;;;;;13.80;26.48;100026.97;7343831;19;20457;-70
2023/05/06 10:41:09;;;;;;;4.00;1.85;;;;;;;13.15;26.14;100026.72;7344237;19;20038;-71
2023/05/06 10:43:40;;;;;;;7.35;1.95;;;;;;;13.10;26.45;100027.00;7343537;19;20488;-71
2023/05/06 10:46:10;;;;;;;2.25;1.67;;;;;;;13.16;26.11;100015.03;7342415;19;20015;-72
2023/05/06 10:48:37;;;;;;;3.30;1.98;;;;;;;13.12;25.54;100017.03;7343727;19;20352;-72
2023/05/06 10:51:14;;;;;;;5.38;1.80;;;;;;;13.21;25.81;100011.03;7346094;19;20022;-72
2023/05/06 10:53:59;;;;;;;4.03;1.83;;;;;;;13.15;26.56;100027.56;7342523;19;20014;-72
2023/05/06 10:56:25;;;;;;;7.25;2.58;;;;;;;12.69;27.30;100035.47;7340556;19;20019;-70
2023/05/06 10:58:52;;;;;;;9.73;2.90;;;;;;;12.30;27.78;100033.91;7340934;19;20070;-73
2023/05/06 11:01:24;;;;;;;3.70;1.92;;;;;;;11.89;28.42;100035.03;7342518;19;20101;-73
2023/05/06 11:03:50;;;;;;;4.30;2.17;;;;;;;11.41;29.14;100041.94;7343591;19;20014;-72
2023/05/06 11:06:35;;;;;;;3.58;1.70;;;;;;;11.29;29.32;100048.97;7342193;19;20118;-70
2023/05/06 11:09:00;;;;;;;5.85;1.88;;;;;;;10.67;29.04;100044.31;7340949;19;20024;-70
2023/05/06 11:11:46;;;;;;;2.67;2.10;;;;;;;10.59;29.67;100058.16;7340824;19;20006;-71
2023/05/06 11:14:14;;;;;;;5.20;2.03;;;;;;;10.14;29.44;100048.59;7341681;19;20427;-70
2023/05/06 11:16:50;;;;;;;2.10;1.55;;;;;;;10.03;29.56;100043.09;7339530;19;20018;-71
2023/05/06 11:19:22;;;;;;;3.20;1.90;;;;;;;9.77;29.37;100058.00;7341497;19;20434;-72
2023/05/06 11:21:48;;;;;;;5.60;2.53;;;;;;;9.56;29.29;100046.00;7341048;19;20501;-71
2023/05/06 11:24:13;;;;;;;2.10;1.73;;;;;;;9.56;29.35;100054.84;7346441;19;20018;-70
2023/05/06 11:26:40;;;;;;;1.77;1.67;;;;;;;9.62;29.25;100046.47;7342718;19;20003;-72
2023/05/06 11:29:06;;;;;;;8.18;2.70;;;;;;;9.75;29.62;100046.59;7343289;19;20014;-70
2023/05/06 11:31:37;;;;;;;4.60;2.17;;;;;;;9.93;29.15;100040.13;7341977;19;20033;-71
2023/05/06 11:34:10;;;;;;;7.38;2.85;;;;;;;9.90;28.85;100034.16;7347737;19;20010;-72
2023/05/06 11:36:43;;;;;;;9.23;3.15;;;;;;;10.06;29.63;100037.53;7344557;19;20029;-73